Flight Track Log - Related Links

Times and Time Zones

All times are in EDT time to prevent confusion due to time zone crossing. See the FLG3429 flight status page for this flight to view local times or setup timezone preferences in your user account.

Time Position Orientation Groundspeed Altitude Reporting Facility
EDT Latitude Longitude Course Direction KTS MPH feet Rate Location/Type
Mon 04:39:29 PM 46.3450 -119.1114 75° East 216 249 3,500  Level Seattle Center
Mon 04:40:30 PM 46.3722 -119.0286 64° Northeast 250 288 5,200 2,066 Climbing Seattle Center
Mon 04:41:00 PM 46.4156 -118.3998 73° East  Level FlightAware Approximate
Mon 04:41:31 PM 46.3911 -118.9211 76° East 276 318 7,700  Level Seattle Center
Mon 04:42:00 PM 46.4553 -118.2185 72° East  Level FlightAware Approximate
Mon 04:42:32 PM 46.4117 -118.8042 76° East 299 344 10,200  Level Seattle Center
Mon 04:43:00 PM 46.4957 -118.0374 72° East  Level FlightAware Approximate
Mon 04:43:33 PM 46.4283 -118.6481 81° East 332 382 12,400  Level Seattle Center
Mon 04:44:00 PM 46.5346 -117.8599 75° East  Level FlightAware Approximate
Mon 04:44:34 PM 46.4447 -118.5039 81° East 365 420 14,200  Level Seattle Center
Mon 04:45:35 PM 46.4625 -118.3519 80° East 383 441 15,800 1,574 Climbing Seattle Center
Mon 04:46:36 PM 46.4800 -118.1889 81° East 415 478 17,400 1,623 Climbing Seattle Center
Mon 04:47:37 PM 46.4981 -118.0256 81° East 411 473 19,100 1,623 Climbing Seattle Center
Mon 04:48:38 PM 46.5167 -117.8528 81° East 425 489 20,700 1,525 Climbing Seattle Center
Mon 04:49:39 PM 46.5344 -117.6703 82° East 454 522 22,200 1,328 Climbing Seattle Center
Mon 04:50:40 PM 46.5536 -117.4878 81° East 459 528 23,400 1,279 Climbing Seattle Center
Mon 04:51:41 PM 46.5736 -117.2806 82° East 465 535 24,800 1,328 Climbing Seattle Center
Mon 04:52:42 PM 46.5933 -117.0919 81° East 473 544 26,100 1,230 Climbing Seattle Center
Mon 04:53:43 PM 46.6108 -116.8947 83° East 491 565 27,300 984 Climbing Seattle Center
Mon 04:54:44 PM 46.6303 -116.6975 82° East 496 571 28,100 1,082 Climbing Seattle Center
Mon 04:55:45 PM 46.6481 -116.4964 83° East 501 577 29,500 1,230 Climbing Seattle Center
Mon 04:56:46 PM 46.6675 -116.2981 82° East 500 575 30,600 1,122 Climbing Seattle Center
Mon 04:57:48 PM 46.6844 -116.0981 83° East 501 577 31,800 1,024 Climbing Seattle Center
Mon 04:58:49 PM 46.7019 -115.8992 83° East 499 574 32,700 885 Climbing Seattle Center
Mon 04:59:50 PM 46.7183 -115.6994 83° East 500 575 33,600 1,033 Climbing Seattle Center
Mon 05:00:51 PM 46.7244 -115.4617 88° East 493 567 34,800 984 Climbing Seattle Center
Mon 05:01:52 PM 46.7189 -115.2900 93° East 485 558 35,600 689 Climbing Seattle Center
Mon 05:02:53 PM 46.7111 -115.0950 93° East 485 558 36,200 590 Climbing Seattle Center
Mon 05:03:54 PM 46.7244 -114.8989 84° East 493 567 36,800 393 Climbing Seattle Center
Mon 05:04:55 PM 46.7431 -114.6661 83° East 487 560 37,000 98 Climbing Seattle Center
Mon 05:05:56 PM 46.7594 -114.4636 83° East 501 577 37,000  Level Seattle Center
Mon 05:06:57 PM 46.7736 -114.2583 84° East 509 586 37,000  Level Seattle Center
Mon 05:07:58 PM 46.7894 -114.0550 83° East 509 586 37,000  Level Seattle Center
Mon 05:08:13 PM 46.7917 -114.0147 85° East 509 586 37,000  Level Salt Lake Center
Mon 05:09:15 PM 46.8075 -113.8131 83° East 504 580 37,000  Level Salt Lake Center
Mon 05:10:17 PM 46.8217 -113.6097 84° East 506 582 37,000  Level Salt Lake Center
Mon 05:11:18 PM 46.8389 -113.3606 84° East 516 594 37,000  Level Salt Lake Center
Mon 05:12:20 PM 46.8528 -113.1531 84° East 514 592 37,000  Level Salt Lake Center
Mon 05:13:22 PM 46.8656 -112.9478 85° East 509 586 37,000  Level Salt Lake Center
Mon 05:14:24 PM 46.8778 -112.7567 85° East 511 588 37,000  Level Salt Lake Center
Mon 05:15:25 PM 46.8936 -112.5108 85° East 510 587 37,000  Level Salt Lake Center
Mon 05:16:27 PM 46.9056 -112.3053 85° East 510 587 37,000  Level Salt Lake Center
Mon 05:17:29 PM 46.9175 -112.0969 85° East 515 593 37,000  Level Salt Lake Center
Mon 05:18:31 PM 46.9292 -111.8881 85° East 518 596 37,000  Level Salt Lake Center
Mon 05:19:32 PM 46.9397 -111.6811 86° East 516 594 37,000  Level Salt Lake Center
Mon 05:20:34 PM 46.9506 -111.4761 85° East 514 592 37,000  Level Salt Lake Center
Mon 05:21:36 PM 46.9622 -111.2306 86° East 510 587 37,000  Level Salt Lake Center
Mon 05:22:38 PM 46.9722 -111.0256 86° East 510 587 37,000  Level Salt Lake Center
Mon 05:23:40 PM 46.9811 -110.8208 86° East 509 586 37,000  Level Salt Lake Center
Mon 05:24:42 PM 46.9897 -110.6136 86° East 514 592 37,000  Level Salt Lake Center
Mon 05:25:43 PM 46.9992 -110.4025 86° East 521 600 37,000 -49 Level Salt Lake Center
Mon 05:26:45 PM 47.0075 -110.1903 87° East 525 604 36,900  Descending Salt Lake Center
Mon 05:27:47 PM 47.0186 -109.9367 86° East 524 603 37,000 48 Climbing Salt Lake Center
Mon 05:28:49 PM 47.0281 -109.7247 86° East 524 603 37,000  Level Salt Lake Center
Mon 05:29:51 PM 47.0347 -109.5133 87° East 514 592 37,000  Level Salt Lake Center
Mon 05:30:53 PM 47.0397 -109.3156 88° East 504 580 37,000  Level Salt Lake Center
Mon 05:31:55 PM 47.0461 -109.1058 87° East 515 593 37,000  Level Salt Lake Center
Mon 05:32:57 PM 47.0511 -108.8819 88° East 514 592 37,000  Level Salt Lake Center
Mon 05:33:59 PM 47.0583 -108.6486 87° East 514 592 37,000  Level Salt Lake Center
Mon 05:35:01 PM 47.0625 -108.4497 88° East 512 589 37,000  Level Salt Lake Center
Mon 05:36:03 PM 47.0694 -108.2128 87° East 517 595 37,000  Level Salt Lake Center
Mon 05:37:05 PM 47.0731 -108.0144 88° East 512 589 37,000  Level Salt Lake Center
Mon 05:38:07 PM 47.0772 -107.7839 88° East 507 583 37,000  Level Salt Lake Center
Mon 05:39:09 PM 47.0808 -107.5861 88° East 507 583 37,000  Level Salt Lake Center
Mon 05:40:11 PM 47.0842 -107.3517 89° East 514 592 37,000  Level Salt Lake Center
Mon 05:41:13 PM 47.0869 -107.1461 89° East 523 602 37,000  Level Salt Lake Center
Mon 05:42:14 PM 47.0894 -106.9067 89° East 525 604 37,000  Level Salt Lake Center
Mon 05:43:16 PM 47.0914 -106.7019 89° East 525 604 37,000  Level Salt Lake Center
Mon 05:44:18 PM 47.0928 -106.5006 89° East 518 596 37,000  Level Salt Lake Center
Mon 05:45:20 PM 47.0936 -106.2694 90° East 518 596 37,000  Level Salt Lake Center
Mon 05:46:22 PM 47.0947 -106.0633 89° East 514 592 37,000  Level Salt Lake Center
Mon 05:47:24 PM 47.0944 -105.8536 90° East 514 592 37,000  Level Salt Lake Center
Mon 05:48:26 PM 47.0942 -105.6417 90° East 519 597 37,000  Level Salt Lake Center
Mon 05:49:28 PM 47.0942 -105.4297 90° East 521 600 37,000  Level Salt Lake Center
Mon 05:50:29 PM 47.0925 -105.1733 90° East 524 603 37,000  Level Salt Lake Center
Mon 05:51:31 PM 47.0911 -104.9581 90° East 528 608 37,000  Level Salt Lake Center
Mon 05:52:33 PM 47.0900 -104.7431 90° East 530 610 37,000  Level Salt Lake Center
Mon 05:53:35 PM 47.0875 -104.5269 91° East 532 612 37,000  Level Salt Lake Center
Mon 05:54:37 PM 47.0853 -104.3119 91° East 532 612 37,000  Level Salt Lake Center
Mon 05:55:39 PM 47.0833 -104.1006 91° East 529 609 37,000  Level Salt Lake Center
Mon 05:56:40 PM 47.0800 -103.8403 91° East 532 612 37,000  Level Salt Lake Center
Mon 05:57:42 PM 47.0758 -103.6239 92° East 534 615 37,000  Level Salt Lake Center
Mon 05:58:30 PM 47.0750 -103.4544 90° East 530 610 37,000  Level Minneapolis Center
Mon 05:59:32 PM 47.0700 -103.2381 92° East 534 615 37,000  Level Minneapolis Center
Mon 06:00:33 PM 47.0658 -103.0233 92° East 533 613 37,000  Level Minneapolis Center
Mon 06:01:35 PM 47.0614 -102.8111 92° East 530 610 37,000  Level Minneapolis Center
Mon 06:02:37 PM 47.0553 -102.5564 92° East 526 605 37,000  Level Minneapolis Center
Mon 06:03:39 PM 47.0492 -102.3447 92° East 524 603 37,000  Level Minneapolis Center
Mon 06:04:40 PM 47.0425 -102.1328 93° East 524 603 37,000  Level Minneapolis Center
Mon 06:05:42 PM 47.0358 -101.9186 93° East 525 604 37,000  Level Minneapolis Center
Mon 06:06:44 PM 47.0278 -101.7058 93° East 526 605 37,000  Level Minneapolis Center
Mon 06:07:46 PM 47.0200 -101.4908 93° East 529 609 37,000  Level Minneapolis Center
Mon 06:08:48 PM 47.0108 -101.2656 93° East 534 615 37,000  Level Minneapolis Center
Mon 06:09:49 PM 46.9997 -101.0033 93° East 537 618 37,000  Level Minneapolis Center
Mon 06:10:51 PM 46.9917 -100.7817 93° East 542 624 37,000  Level Minneapolis Center
Mon 06:11:53 PM 46.9817 -100.5625 94° East 540 621 37,000  Level Minneapolis Center
Mon 06:12:55 PM 46.9725 -100.3703 94° East 540 621 37,000  Level Minneapolis Center
Mon 06:13:56 PM 46.9606 -100.1086 94° East 538 619 37,000  Level Minneapolis Center
Mon 06:14:58 PM 46.9494 -99.8914 94° East 540 621 37,000  Level Minneapolis Center
Mon 06:16:00 PM 46.9386 -99.6758 94° East 537 618 37,000  Level Minneapolis Center
Mon 06:17:02 PM 46.9258 -99.4614 95° East 533 613 37,000  Level Minneapolis Center
Mon 06:18:04 PM 46.9144 -99.2464 94° East 532 612 37,000  Level Minneapolis Center
Mon 06:19:05 PM 46.9022 -99.0350 95° East 528 608 37,000  Level Minneapolis Center
Mon 06:20:07 PM 46.8875 -98.7783 95° East 530 610 37,000  Level Minneapolis Center
Mon 06:21:09 PM 46.8736 -98.5619 95° East 535 616 37,000  Level Minneapolis Center
Mon 06:22:11 PM 46.8594 -98.3461 95° East 537 618 37,000  Level Minneapolis Center
Mon 06:23:13 PM 46.8467 -98.1322 95° East 536 617 37,000  Level Minneapolis Center
Mon 06:24:15 PM 46.8319 -97.9197 96° East 533 613 37,000  Level Minneapolis Center
Mon 06:25:17 PM 46.8178 -97.7089 96° East 530 610 37,000  Level Minneapolis Center
Mon 06:26:19 PM 46.7989 -97.4567 96° East 527 606 37,000  Level Minneapolis Center
Mon 06:27:21 PM 46.7833 -97.2444 96° East 530 610 37,000  Level Minneapolis Center
Mon 06:28:23 PM 46.7675 -97.0317 96° East 531 611 37,000  Level Minneapolis Center
Mon 06:29:25 PM 46.7431 -96.8206 100° East 532 612 37,000  Level Minneapolis Center
Mon 06:30:27 PM 46.6847 -96.6211 113° Southeast 536 617 37,000  Level Minneapolis Center
Mon 06:31:29 PM 46.6122 -96.3853 114° Southeast 535 616 37,000  Level Minneapolis Center
Mon 06:32:31 PM 46.5561 -96.1867 112° Southeast 536 617 37,000  Level Minneapolis Center
Mon 06:33:33 PM 46.4936 -95.9958 115° Southeast 527 606 37,000  Level Minneapolis Center
Mon 06:34:35 PM 46.4167 -95.7917 119° Southeast 525 604 37,000  Level Minneapolis Center
Mon 06:35:37 PM 46.3467 -95.6089 119° Southeast 521 600 37,000 -339 Level Minneapolis Center
Mon 06:36:39 PM 46.2744 -95.4231 119° Southeast 525 604 36,300 -1,258 Descending Minneapolis Center
Mon 06:37:41 PM 46.1944 -95.2153 119° Southeast 540 621 34,400 -1,790 Descending Minneapolis Center
Mon 06:38:43 PM 46.1197 -95.0253 120° Southeast 545 627 32,600 -1,887 Descending Minneapolis Center
Mon 06:39:45 PM 46.0450 -94.8375 120° Southeast 543 625 30,500 -2,032 Descending Minneapolis Center
Mon 06:40:47 PM 45.9708 -94.6508 120° Southeast 542 624 28,400 -2,032 Descending Minneapolis Center
Mon 06:41:49 PM 45.8983 -94.4694 120° Southeast 532 612 26,300 -2,226 Descending Minneapolis Center
Mon 06:42:51 PM 45.8153 -94.2636 120° Southeast 508 585 23,800 -2,226 Descending Minneapolis Center
Mon 06:43:53 PM 45.7503 -94.1031 120° Southeast 481 554 21,700 -1,790 Descending Minneapolis Center
Mon 06:44:55 PM 45.6858 -93.9464 120° Southeast 462 532 20,100 -1,694 Descending Minneapolis Center
Mon 06:45:57 PM 45.6225 -93.7922 120° Southeast 457 526 18,200 -1,790 Descending Minneapolis Center
Mon 06:46:59 PM 45.5619 -93.6433 120° Southeast 434 499 16,400 -1,694 Descending Minneapolis Center
Mon 06:48:01 PM 45.4783 -93.5517 142° Southeast 390 449 14,700 -1,790 Descending Minneapolis Center
Mon 06:49:03 PM 45.3600 -93.4864 159° South 381 438 12,700 -1,742 Descending Minneapolis Center
Mon 06:50:05 PM 45.2619 -93.4347 160° South 376 433 11,100 -823 Descending Minneapolis Center
Mon 06:51:07 PM 45.1675 -93.3847 160° South 366 421 11,000 -290 Descending Minneapolis Center
Mon 06:52:09 PM 45.0758 -93.3353 159° South 348 400 10,500 -1,016 Descending Minneapolis Center
Mon 06:53:11 PM 44.9936 -93.3069 166° South 309 356 8,900 -1,210 Descending Minneapolis Center
Mon 06:54:13 PM 44.9108 -93.3019 178° South 296 341 8,000 -432 Descending Minneapolis Center
Mon 06:55:16 PM 44.8272 -93.3050 181° South 257 296 8,000 -576 Level Minneapolis Center
Mon 06:56:18 PM 44.7611 -93.3183 188° South 248 285 6,800 -1,113 Descending Minneapolis Center
Mon 06:57:20 PM 44.6953 -93.3186 180° South 244 281 5,700 -1,258 Descending Minneapolis Center
Mon 06:58:22 PM 44.6753 -93.2308 108° East 231 266 4,200 -968 Descending Minneapolis Center
Mon 06:59:24 PM 44.7231 -93.1994 25° Northeast 210 242 3,700 -677 Descending Minneapolis Center
Mon 07:00:26 PM 44.7686 -93.2108 350° North 180 207 2,800 -919 Descending Minneapolis Center
Mon 07:01:28 PM 44.8169 -93.2242 349° North 154 177 1,800 -823 Descending Minneapolis Center
Mon 07:02:30 PM 44.8572 -93.2342 350° North 149 171 1,100 -677 Descending Minneapolis Center

Login

Don't have an account? Register now (free) for customized features, flight alerts, and more!